sensor_id;sensor_type;location;lat;lon;timestamp;P1;durP1;ratioP1;P2;durP2;ratioP2
22421;SDS011;11378;51.642;7.668;2022-11-20T00:00:11;5.35;;;3.90;;
22421;SDS011;11378;51.642;7.668;2022-11-20T00:02:37;5.70;;;4.50;;
22421;SDS011;11378;51.642;7.668;2022-11-20T00:05:04;5.20;;;4.15;;
22421;SDS011;11378;51.642;7.668;2022-11-20T00:07:30;6.32;;;4.40;;
22421;SDS011;11378;51.642;7.668;2022-11-20T00:09:56;6.65;;;4.30;;
22421;SDS011;11378;51.642;7.668;2022-11-20T00:12:23;5.85;;;4.13;;
22421;SDS011;11378;51.642;7.668;2022-11-20T00:14:49;6.53;;;4.22;;
22421;SDS011;11378;51.642;7.668;2022-11-20T00:17:16;6.20;;;4.20;;
22421;SDS011;11378;51.642;7.668;2022-11-20T00:19:42;5.35;;;4.07;;
22421;SDS011;11378;51.642;7.668;2022-11-20T00:22:08;5.28;;;4.05;;
22421;SDS011;11378;51.642;7.668;2022-11-20T00:24:35;6.68;;;3.95;;
22421;SDS011;11378;51.642;7.668;2022-11-20T00:27:01;5.63;;;4.35;;
22421;SDS011;11378;51.642;7.668;2022-11-20T00:29:27;5.43;;;4.40;;
22421;SDS011;11378;51.642;7.668;2022-11-20T00:31:54;5.55;;;3.97;;
22421;SDS011;11378;51.642;7.668;2022-11-20T00:34:20;5.65;;;4.20;;
22421;SDS011;11378;51.642;7.668;2022-11-20T00:36:46;6.45;;;4.28;;
22421;SDS011;11378;51.642;7.668;2022-11-20T00:39:13;4.85;;;4.22;;
22421;SDS011;11378;51.642;7.668;2022-11-20T00:41:39;5.20;;;4.10;;
22421;SDS011;11378;51.642;7.668;2022-11-20T00:44:06;4.72;;;3.88;;
22421;SDS011;11378;51.642;7.668;2022-11-20T00:46:32;5.22;;;4.03;;
22421;SDS011;11378;51.642;7.668;2022-11-20T00:48:59;4.57;;;3.80;;
22421;SDS011;11378;51.642;7.668;2022-11-20T00:51:26;4.90;;;4.28;;
22421;SDS011;11378;51.642;7.668;2022-11-20T00:53:54;5.72;;;4.20;;
22421;SDS011;11378;51.642;7.668;2022-11-20T00:56:21;5.40;;;4.10;;
22421;SDS011;11378;51.642;7.668;2022-11-20T00:58:48;6.13;;;4.40;;
22421;SDS011;11378;51.642;7.668;2022-11-20T01:01:16;5.18;;;3.70;;
22421;SDS011;11378;51.642;7.668;2022-11-20T01:03:44;6.28;;;4.22;;
22421;SDS011;11378;51.642;7.668;2022-11-20T01:06:12;4.88;;;3.70;;
22421;SDS011;11378;51.642;7.668;2022-11-20T01:08:39;4.97;;;4.07;;
22421;SDS011;11378;51.642;7.668;2022-11-20T01:11:16;5.82;;;3.90;;
22421;SDS011;11378;51.642;7.668;2022-11-20T01:13:43;6.03;;;3.80;;
22421;SDS011;11378;51.642;7.668;2022-11-20T01:16:11;7.28;;;4.28;;
22421;SDS011;11378;51.642;7.668;2022-11-20T01:18:39;4.45;;;3.53;;
22421;SDS011;11378;51.642;7.668;2022-11-20T01:21:10;5.65;;;3.70;;
22421;SDS011;11378;51.642;7.668;2022-11-20T01:23:37;4.75;;;3.75;;
22421;SDS011;11378;51.642;7.668;2022-11-20T01:26:05;4.97;;;3.95;;
22421;SDS011;11378;51.642;7.668;2022-11-20T01:28:32;4.55;;;3.65;;
22421;SDS011;11378;51.642;7.668;2022-11-20T01:30:59;4.90;;;3.67;;
22421;SDS011;11378;51.642;7.668;2022-11-20T01:33:26;5.22;;;3.70;;
22421;SDS011;11378;51.642;7.668;2022-11-20T01:35:52;5.10;;;3.97;;
22421;SDS011;11378;51.642;7.668;2022-11-20T01:38:19;4.70;;;3.78;;
22421;SDS011;11378;51.642;7.668;2022-11-20T01:40:54;4.47;;;3.70;;
22421;SDS011;11378;51.642;7.668;2022-11-20T01:43:21;5.25;;;3.78;;
22421;SDS011;11378;51.642;7.668;2022-11-20T01:46:05;5.53;;;3.83;;
22421;SDS011;11378;51.642;7.668;2022-11-20T01:48:33;4.93;;;3.88;;
22421;SDS011;11378;51.642;7.668;2022-11-20T01:51:02;5.00;;;3.67;;
22421;SDS011;11378;51.642;7.668;2022-11-20T01:53:31;5.95;;;4.32;;
22421;SDS011;11378;51.642;7.668;2022-11-20T01:55:58;5.30;;;3.80;;
22421;SDS011;11378;51.642;7.668;2022-11-20T01:58:31;5.15;;;3.85;;
22421;SDS011;11378;51.642;7.668;2022-11-20T02:00:58;5.53;;;4.15;;
22421;SDS011;11378;51.642;7.668;2022-11-20T02:03:25;4.97;;;3.70;;
22421;SDS011;11378;51.642;7.668;2022-11-20T02:08:18;5.68;;;4.18;;
22421;SDS011;11378;51.642;7.668;2022-11-20T02:10:45;4.45;;;3.67;;
22421;SDS011;11378;51.642;7.668;2022-11-20T02:13:11;4.60;;;3.90;;
22421;SDS011;11378;51.642;7.668;2022-11-20T02:15:56;3.78;;;3.15;;
22421;SDS011;11378;51.642;7.668;2022-11-20T02:18:23;5.88;;;3.80;;
22421;SDS011;11378;51.642;7.668;2022-11-20T02:20:50;5.97;;;3.70;;
22421;SDS011;11378;51.642;7.668;2022-11-20T02:26:20;4.45;;;3.45;;
22421;SDS011;11378;51.642;7.668;2022-11-20T02:28:48;5.65;;;3.60;;
22421;SDS011;11378;51.642;7.668;2022-11-20T02:31:14;5.47;;;3.70;;
22421;SDS011;11378;51.642;7.668;2022-11-20T02:33:41;5.45;;;4.03;;
22421;SDS011;11378;51.642;7.668;2022-11-20T02:36:08;4.22;;;3.40;;
22421;SDS011;11378;51.642;7.668;2022-11-20T02:38:37;5.30;;;3.55;;
22421;SDS011;11378;51.642;7.668;2022-11-20T02:41:04;4.80;;;3.72;;
22421;SDS011;11378;51.642;7.668;2022-11-20T02:43:30;4.35;;;3.63;;
22421;SDS011;11378;51.642;7.668;2022-11-20T02:45:56;5.22;;;3.97;;
22421;SDS011;11378;51.642;7.668;2022-11-20T02:48:23;5.03;;;3.78;;
22421;SDS011;11378;51.642;7.668;2022-11-20T02:50:49;4.47;;;3.63;;
22421;SDS011;11378;51.642;7.668;2022-11-20T02:53:15;4.90;;;3.50;;
22421;SDS011;11378;51.642;7.668;2022-11-20T02:55:42;5.43;;;3.88;;
22421;SDS011;11378;51.642;7.668;2022-11-20T02:58:08;4.20;;;3.70;;
22421;SDS011;11378;51.642;7.668;2022-11-20T03:00:34;4.85;;;3.30;;
22421;SDS011;11378;51.642;7.668;2022-11-20T03:03:01;3.97;;;3.40;;
22421;SDS011;11378;51.642;7.668;2022-11-20T03:05:27;5.60;;;3.78;;
22421;SDS011;11378;51.642;7.668;2022-11-20T03:07:53;4.38;;;3.63;;
22421;SDS011;11378;51.642;7.668;2022-11-20T03:10:19;4.00;;;3.38;;
22421;SDS011;11378;51.642;7.668;2022-11-20T03:12:45;4.40;;;3.33;;
22421;SDS011;11378;51.642;7.668;2022-11-20T03:15:11;4.88;;;3.88;;
22421;SDS011;11378;51.642;7.668;2022-11-20T03:17:38;5.07;;;3.42;;
22421;SDS011;11378;51.642;7.668;2022-11-20T03:20:04;5.82;;;4.15;;
22421;SDS011;11378;51.642;7.668;2022-11-20T03:22:31;4.65;;;3.70;;
22421;SDS011;11378;51.642;7.668;2022-11-20T03:24:57;4.22;;;3.40;;
22421;SDS011;11378;51.642;7.668;2022-11-20T03:27:24;4.85;;;3.65;;
22421;SDS011;11378;51.642;7.668;2022-11-20T03:29:50;4.90;;;3.90;;
22421;SDS011;11378;51.642;7.668;2022-11-20T03:32:17;5.57;;;3.40;;
22421;SDS011;11378;51.642;7.668;2022-11-20T03:34:43;4.35;;;3.33;;
22421;SDS011;11378;51.642;7.668;2022-11-20T03:37:09;5.07;;;3.40;;
22421;SDS011;11378;51.642;7.668;2022-11-20T03:39:36;4.13;;;3.38;;
22421;SDS011;11378;51.642;7.668;2022-11-20T03:42:02;4.57;;;3.60;;
22421;SDS011;11378;51.642;7.668;2022-11-20T03:44:48;4.63;;;3.70;;
22421;SDS011;11378;51.642;7.668;2022-11-20T03:47:15;5.80;;;3.88;;
22421;SDS011;11378;51.642;7.668;2022-11-20T03:49:41;4.43;;;3.72;;
22421;SDS011;11378;51.642;7.668;2022-11-20T03:52:07;5.20;;;3.83;;
22421;SDS011;11378;51.642;7.668;2022-11-20T03:54:34;5.07;;;3.70;;
22421;SDS011;11378;51.642;7.668;2022-11-20T03:57:00;5.05;;;3.50;;
22421;SDS011;11378;51.642;7.668;2022-11-20T03:59:27;4.38;;;3.38;;
22421;SDS011;11378;51.642;7.668;2022-11-20T04:01:53;4.05;;;3.25;;
22421;SDS011;11378;51.642;7.668;2022-11-20T04:04:20;4.25;;;3.45;;
22421;SDS011;11378;51.642;7.668;2022-11-20T04:06:46;5.32;;;4.00;;
22421;SDS011;11378;51.642;7.668;2022-11-20T04:09:12;4.80;;;3.35;;
22421;SDS011;11378;51.642;7.668;2022-11-20T04:11:39;5.32;;;3.92;;
22421;SDS011;11378;51.642;7.668;2022-11-20T04:14:11;4.90;;;3.42;;
22421;SDS011;11378;51.642;7.668;2022-11-20T04:16:38;4.60;;;3.45;;
22421;SDS011;11378;51.642;7.668;2022-11-20T04:19:09;4.43;;;3.47;;
22421;SDS011;11378;51.642;7.668;2022-11-20T04:21:36;4.03;;;3.17;;
22421;SDS011;11378;51.642;7.668;2022-11-20T04:24:02;3.78;;;2.90;;
22421;SDS011;11378;51.642;7.668;2022-11-20T04:26:29;4.55;;;3.33;;
22421;SDS011;11378;51.642;7.668;2022-11-20T04:28:56;4.05;;;3.35;;
22421;SDS011;11378;51.642;7.668;2022-11-20T04:31:27;3.60;;;2.95;;
22421;SDS011;11378;51.642;7.668;2022-11-20T04:33:54;3.80;;;3.00;;
22421;SDS011;11378;51.642;7.668;2022-11-20T04:36:21;5.18;;;3.63;;
22421;SDS011;11378;51.642;7.668;2022-11-20T04:38:52;5.97;;;3.65;;
22421;SDS011;11378;51.642;7.668;2022-11-20T04:41:19;5.03;;;3.47;;
22421;SDS011;11378;51.642;7.668;2022-11-20T04:43:47;4.50;;;3.28;;
22421;SDS011;11378;51.642;7.668;2022-11-20T04:46:14;5.10;;;3.50;;
22421;SDS011;11378;51.642;7.668;2022-11-20T04:48:41;4.53;;;3.60;;
22421;SDS011;11378;51.642;7.668;2022-11-20T04:51:07;4.43;;;3.35;;
22421;SDS011;11378;51.642;7.668;2022-11-20T04:53:33;4.13;;;3.45;;
22421;SDS011;11378;51.642;7.668;2022-11-20T04:56:04;3.88;;;3.20;;
22421;SDS011;11378;51.642;7.668;2022-11-20T04:58:30;3.80;;;3.30;;
22421;SDS011;11378;51.642;7.668;2022-11-20T05:01:00;4.15;;;3.30;;
22421;SDS011;11378;51.642;7.668;2022-11-20T05:03:27;3.90;;;3.15;;
22421;SDS011;11378;51.642;7.668;2022-11-20T05:05:54;4.57;;;3.30;;
22421;SDS011;11378;51.642;7.668;2022-11-20T05:08:20;4.43;;;3.38;;
22421;SDS011;11378;51.642;7.668;2022-11-20T05:10:47;4.07;;;3.25;;
22421;SDS011;11378;51.642;7.668;2022-11-20T05:13:13;6.10;;;3.72;;
22421;SDS011;11378;51.642;7.668;2022-11-20T05:15:39;3.83;;;3.20;;
22421;SDS011;11378;51.642;7.668;2022-11-20T05:18:06;3.53;;;3.22;;
22421;SDS011;11378;51.642;7.668;2022-11-20T05:20:32;4.43;;;3.47;;
22421;SDS011;11378;51.642;7.668;2022-11-20T05:22:59;4.82;;;3.47;;
22421;SDS011;11378;51.642;7.668;2022-11-20T05:25:25;4.57;;;3.55;;
22421;SDS011;11378;51.642;7.668;2022-11-20T05:27:52;3.30;;;3.00;;
22421;SDS011;11378;51.642;7.668;2022-11-20T05:30:19;4.38;;;3.28;;
22421;SDS011;11378;51.642;7.668;2022-11-20T05:32:45;4.55;;;3.38;;
22421;SDS011;11378;51.642;7.668;2022-11-20T05:35:11;4.38;;;3.40;;
22421;SDS011;11378;51.642;7.668;2022-11-20T05:37:38;3.75;;;3.20;;
22421;SDS011;11378;51.642;7.668;2022-11-20T05:40:04;4.97;;;3.60;;
22421;SDS011;11378;51.642;7.668;2022-11-20T05:42:31;4.03;;;3.08;;
22421;SDS011;11378;51.642;7.668;2022-11-20T05:44:58;4.28;;;3.28;;
22421;SDS011;11378;51.642;7.668;2022-11-20T05:47:24;4.40;;;3.30;;
22421;SDS011;11378;51.642;7.668;2022-11-20T05:49:50;3.45;;;3.10;;
22421;SDS011;11378;51.642;7.668;2022-11-20T05:52:17;4.25;;;3.30;;
22421;SDS011;11378;51.642;7.668;2022-11-20T05:54:43;4.85;;;3.22;;
22421;SDS011;11378;51.642;7.668;2022-11-20T05:57:09;4.07;;;3.30;;
22421;SDS011;11378;51.642;7.668;2022-11-20T05:59:36;4.05;;;3.17;;
22421;SDS011;11378;51.642;7.668;2022-11-20T06:02:02;4.30;;;3.38;;
22421;SDS011;11378;51.642;7.668;2022-11-20T06:04:29;4.25;;;3.13;;
22421;SDS011;11378;51.642;7.668;2022-11-20T06:06:55;4.03;;;3.22;;
22421;SDS011;11378;51.642;7.668;2022-11-20T06:09:21;3.58;;;3.08;;
22421;SDS011;11378;51.642;7.668;2022-11-20T06:11:48;4.00;;;2.92;;
22421;SDS011;11378;51.642;7.668;2022-11-20T06:14:14;4.38;;;3.08;;
22421;SDS011;11378;51.642;7.668;2022-11-20T06:16:40;4.05;;;3.30;;
22421;SDS011;11378;51.642;7.668;2022-11-20T06:19:07;4.88;;;3.28;;
22421;SDS011;11378;51.642;7.668;2022-11-20T06:21:33;3.25;;;2.75;;
22421;SDS011;11378;51.642;7.668;2022-11-20T06:23:59;4.43;;;3.53;;
22421;SDS011;11378;51.642;7.668;2022-11-20T06:26:26;4.03;;;3.30;;
22421;SDS011;11378;51.642;7.668;2022-11-20T06:28:53;4.35;;;3.38;;
22421;SDS011;11378;51.642;7.668;2022-11-20T06:31:22;5.43;;;3.33;;
22421;SDS011;11378;51.642;7.668;2022-11-20T06:33:49;4.15;;;3.30;;
22421;SDS011;11378;51.642;7.668;2022-11-20T06:36:16;5.32;;;3.45;;
22421;SDS011;11378;51.642;7.668;2022-11-20T06:38:44;3.70;;;3.10;;
22421;SDS011;11378;51.642;7.668;2022-11-20T06:41:11;4.40;;;3.20;;
22421;SDS011;11378;51.642;7.668;2022-11-20T06:43:39;4.07;;;3.17;;
22421;SDS011;11378;51.642;7.668;2022-11-20T06:46:05;3.88;;;3.08;;
22421;SDS011;11378;51.642;7.668;2022-11-20T06:48:31;5.75;;;3.70;;
22421;SDS011;11378;51.642;7.668;2022-11-20T06:50:58;5.10;;;4.07;;
22421;SDS011;11378;51.642;7.668;2022-11-20T06:53:25;5.72;;;3.88;;
22421;SDS011;11378;51.642;7.668;2022-11-20T06:55:51;6.25;;;3.40;;
22421;SDS011;11378;51.642;7.668;2022-11-20T06:58:18;4.55;;;3.35;;
22421;SDS011;11378;51.642;7.668;2022-11-20T07:00:44;7.13;;;3.70;;
22421;SDS011;11378;51.642;7.668;2022-11-20T07:03:11;4.47;;;3.30;;
22421;SDS011;11378;51.642;7.668;2022-11-20T07:05:38;4.28;;;3.85;;
22421;SDS011;11378;51.642;7.668;2022-11-20T07:08:05;6.03;;;3.90;;
22421;SDS011;11378;51.642;7.668;2022-11-20T07:10:31;3.70;;;3.30;;
22421;SDS011;11378;51.642;7.668;2022-11-20T07:12:58;4.05;;;3.50;;
22421;SDS011;11378;51.642;7.668;2022-11-20T07:15:25;4.38;;;3.50;;
22421;SDS011;11378;51.642;7.668;2022-11-20T07:17:51;4.80;;;3.80;;
22421;SDS011;11378;51.642;7.668;2022-11-20T07:20:17;4.22;;;3.78;;
22421;SDS011;11378;51.642;7.668;2022-11-20T07:22:44;5.25;;;4.20;;
22421;SDS011;11378;51.642;7.668;2022-11-20T07:25:10;5.00;;;3.95;;
22421;SDS011;11378;51.642;7.668;2022-11-20T07:27:37;4.38;;;3.67;;
22421;SDS011;11378;51.642;7.668;2022-11-20T07:30:03;4.25;;;3.35;;
22421;SDS011;11378;51.642;7.668;2022-11-20T07:32:30;5.65;;;4.30;;
22421;SDS011;11378;51.642;7.668;2022-11-20T07:34:56;5.57;;;3.92;;
22421;SDS011;11378;51.642;7.668;2022-11-20T07:37:22;5.35;;;4.00;;
22421;SDS011;11378;51.642;7.668;2022-11-20T07:39:49;4.15;;;3.47;;
22421;SDS011;11378;51.642;7.668;2022-11-20T07:42:15;6.28;;;4.43;;
22421;SDS011;11378;51.642;7.668;2022-11-20T07:44:41;5.32;;;3.97;;
22421;SDS011;11378;51.642;7.668;2022-11-20T07:47:08;5.55;;;4.30;;
22421;SDS011;11378;51.642;7.668;2022-11-20T07:49:34;5.70;;;4.07;;
22421;SDS011;11378;51.642;7.668;2022-11-20T07:52:01;6.03;;;3.97;;
22421;SDS011;11378;51.642;7.668;2022-11-20T07:54:27;5.15;;;4.25;;
22421;SDS011;11378;51.642;7.668;2022-11-20T07:56:53;6.60;;;5.15;;
22421;SDS011;11378;51.642;7.668;2022-11-20T07:59:20;6.43;;;4.50;;
22421;SDS011;11378;51.642;7.668;2022-11-20T08:01:46;6.05;;;4.18;;
22421;SDS011;11378;51.642;7.668;2022-11-20T08:04:13;5.32;;;3.90;;
22421;SDS011;11378;51.642;7.668;2022-11-20T08:06:41;5.15;;;4.25;;
22421;SDS011;11378;51.642;7.668;2022-11-20T08:09:07;5.13;;;4.05;;
22421;SDS011;11378;51.642;7.668;2022-11-20T08:11:34;4.78;;;3.80;;
22421;SDS011;11378;51.642;7.668;2022-11-20T08:14:19;5.30;;;4.22;;
22421;SDS011;11378;51.642;7.668;2022-11-20T08:16:47;4.85;;;4.15;;
22421;SDS011;11378;51.642;7.668;2022-11-20T08:19:14;5.18;;;3.90;;
22421;SDS011;11378;51.642;7.668;2022-11-20T08:21:41;4.20;;;3.80;;
22421;SDS011;11378;51.642;7.668;2022-11-20T08:24:08;5.88;;;4.15;;
22421;SDS011;11378;51.642;7.668;2022-11-20T08:26:36;4.95;;;3.97;;
22421;SDS011;11378;51.642;7.668;2022-11-20T08:29:03;4.80;;;3.80;;
22421;SDS011;11378;51.642;7.668;2022-11-20T08:31:29;5.60;;;3.88;;
22421;SDS011;11378;51.642;7.668;2022-11-20T08:33:56;4.57;;;4.00;;
22421;SDS011;11378;51.642;7.668;2022-11-20T08:36:22;5.57;;;4.10;;
22421;SDS011;11378;51.642;7.668;2022-11-20T08:38:49;4.68;;;3.83;;
22421;SDS011;11378;51.642;7.668;2022-11-20T08:41:16;5.05;;;3.90;;
22421;SDS011;11378;51.642;7.668;2022-11-20T08:43:49;4.85;;;3.85;;
22421;SDS011;11378;51.642;7.668;2022-11-20T08:46:16;4.35;;;3.78;;
22421;SDS011;11378;51.642;7.668;2022-11-20T08:48:42;5.40;;;3.83;;
22421;SDS011;11378;51.642;7.668;2022-11-20T08:51:09;5.13;;;4.07;;
22421;SDS011;11378;51.642;7.668;2022-11-20T08:53:36;4.38;;;3.55;;
22421;SDS011;11378;51.642;7.668;2022-11-20T08:56:02;5.28;;;4.15;;
22421;SDS011;11378;51.642;7.668;2022-11-20T08:58:29;5.32;;;3.35;;
22421;SDS011;11378;51.642;7.668;2022-11-20T09:00:55;5.28;;;3.90;;
22421;SDS011;11378;51.642;7.668;2022-11-20T09:03:22;4.15;;;3.55;;
22421;SDS011;11378;51.642;7.668;2022-11-20T09:05:49;4.28;;;3.80;;
22421;SDS011;11378;51.642;7.668;2022-11-20T09:08:15;4.28;;;3.58;;
22421;SDS011;11378;51.642;7.668;2022-11-20T09:10:42;5.18;;;4.13;;
22421;SDS011;11378;51.642;7.668;2022-11-20T09:13:08;5.45;;;4.32;;
22421;SDS011;11378;51.642;7.668;2022-11-20T09:15:35;6.05;;;4.10;;
22421;SDS011;11378;51.642;7.668;2022-11-20T09:18:01;4.65;;;3.80;;
22421;SDS011;11378;51.642;7.668;2022-11-20T09:20:29;5.07;;;4.10;;
22421;SDS011;11378;51.642;7.668;2022-11-20T09:22:56;4.30;;;3.67;;
22421;SDS011;11378;51.642;7.668;2022-11-20T09:25:23;3.95;;;3.15;;
22421;SDS011;11378;51.642;7.668;2022-11-20T09:27:58;5.28;;;3.83;;
22421;SDS011;11378;51.642;7.668;2022-11-20T09:30:25;6.75;;;4.22;;
22421;SDS011;11378;51.642;7.668;2022-11-20T09:32:52;7.88;;;4.68;;
22421;SDS011;11378;51.642;7.668;2022-11-20T09:35:18;5.43;;;3.75;;
22421;SDS011;11378;51.642;7.668;2022-11-20T09:37:45;4.25;;;3.55;;
22421;SDS011;11378;51.642;7.668;2022-11-20T09:45:47;5.28;;;4.03;;
22421;SDS011;11378;51.642;7.668;2022-11-20T09:51:20;4.40;;;3.63;;
22421;SDS011;11378;51.642;7.668;2022-11-20T09:56:16;4.28;;;3.53;;
22421;SDS011;11378;51.642;7.668;2022-11-20T09:58:44;4.45;;;3.60;;
22421;SDS011;11378;51.642;7.668;2022-11-20T10:01:12;4.60;;;3.55;;
22421;SDS011;11378;51.642;7.668;2022-11-20T10:06:11;2.47;;;2.22;;
22421;SDS011;11378;51.642;7.668;2022-11-20T10:08:44;4.97;;;3.70;;
22421;SDS011;11378;51.642;7.668;2022-11-20T10:11:20;4.28;;;3.33;;
22421;SDS011;11378;51.642;7.668;2022-11-20T10:18:58;3.22;;;2.53;;
22421;SDS011;11378;51.642;7.668;2022-11-20T10:29:01;3.83;;;3.40;;
22421;SDS011;11378;51.642;7.668;2022-11-20T10:31:33;3.80;;;3.30;;
22421;SDS011;11378;51.642;7.668;2022-11-20T10:34:01;5.05;;;3.83;;
22421;SDS011;11378;51.642;7.668;2022-11-20T10:36:50;4.47;;;3.42;;
22421;SDS011;11378;51.642;7.668;2022-11-20T10:41:48;4.57;;;3.33;;
22421;SDS011;11378;51.642;7.668;2022-11-20T10:44:24;3.53;;;3.20;;
22421;SDS011;11378;51.642;7.668;2022-11-20T10:47:15;4.18;;;3.50;;
22421;SDS011;11378;51.642;7.668;2022-11-20T10:49:42;4.15;;;3.30;;
22421;SDS011;11378;51.642;7.668;2022-11-20T10:52:47;4.05;;;3.20;;
22421;SDS011;11378;51.642;7.668;2022-11-20T10:55:13;4.15;;;3.35;;
22421;SDS011;11378;51.642;7.668;2022-11-20T10:57:53;3.83;;;3.17;;
22421;SDS011;11378;51.642;7.668;2022-11-20T11:00:20;3.72;;;2.92;;
22421;SDS011;11378;51.642;7.668;2022-11-20T11:02:50;3.83;;;3.13;;
22421;SDS011;11378;51.642;7.668;2022-11-20T11:08:14;3.40;;;3.10;;
22421;SDS011;11378;51.642;7.668;2022-11-20T11:13:26;4.15;;;3.25;;
22421;SDS011;11378;51.642;7.668;2022-11-20T11:15:53;3.80;;;2.97;;
22421;SDS011;11378;51.642;7.668;2022-11-20T11:18:24;3.38;;;2.83;;
22421;SDS011;11378;51.642;7.668;2022-11-20T11:20:51;4.57;;;3.28;;
22421;SDS011;11378;51.642;7.668;2022-11-20T11:23:31;3.28;;;2.75;;
22421;SDS011;11378;51.642;7.668;2022-11-20T11:25:59;4.38;;;3.40;;
22421;SDS011;11378;51.642;7.668;2022-11-20T11:28:26;3.70;;;3.08;;
22421;SDS011;11378;51.642;7.668;2022-11-20T11:30:53;3.20;;;2.83;;
22421;SDS011;11378;51.642;7.668;2022-11-20T11:33:29;3.70;;;3.05;;
22421;SDS011;11378;51.642;7.668;2022-11-20T11:35:57;3.88;;;2.97;;
22421;SDS011;11378;51.642;7.668;2022-11-20T11:40:55;3.63;;;3.03;;
22421;SDS011;11378;51.642;7.668;2022-11-20T11:43:23;2.95;;;2.47;;
22421;SDS011;11378;51.642;7.668;2022-11-20T11:46:29;3.72;;;2.95;;
22421;SDS011;11378;51.642;7.668;2022-11-20T11:51:45;3.83;;;2.88;;
22421;SDS011;11378;51.642;7.668;2022-11-20T11:54:19;3.47;;;3.17;;
22421;SDS011;11378;51.642;7.668;2022-11-20T11:56:46;3.80;;;3.15;;
22421;SDS011;11378;51.642;7.668;2022-11-20T11:59:15;3.75;;;2.90;;
22421;SDS011;11378;51.642;7.668;2022-11-20T12:01:46;3.90;;;3.20;;
22421;SDS011;11378;51.642;7.668;2022-11-20T12:06:39;7.65;;;4.70;;
22421;SDS011;11378;51.642;7.668;2022-11-20T12:09:09;5.97;;;3.60;;
22421;SDS011;11378;51.642;7.668;2022-11-20T12:11:46;14.85;;;6.93;;
22421;SDS011;11378;51.642;7.668;2022-11-20T12:16:42;13.68;;;7.78;;
22421;SDS011;11378;51.642;7.668;2022-11-20T12:19:12;18.20;;;11.57;;
22421;SDS011;11378;51.642;7.668;2022-11-20T12:27:00;11.30;;;6.45;;
22421;SDS011;11378;51.642;7.668;2022-11-20T12:38:04;12.65;;;7.32;;
22421;SDS011;11378;51.642;7.668;2022-11-20T12:40:40;11.27;;;7.20;;
22421;SDS011;11378;51.642;7.668;2022-11-20T13:00:55;17.65;;;11.77;;
22421;SDS011;11378;51.642;7.668;2022-11-20T13:03:34;22.85;;;11.18;;
22421;SDS011;11378;51.642;7.668;2022-11-20T13:06:16;18.92;;;11.10;;
22421;SDS011;11378;51.642;7.668;2022-11-20T13:17:19;22.48;;;12.20;;
22421;SDS011;11378;51.642;7.668;2022-11-20T13:19:55;22.60;;;12.30;;
22421;SDS011;11378;51.642;7.668;2022-11-20T13:22:45;19.90;;;11.52;;
22421;SDS011;11378;51.642;7.668;2022-11-20T13:25:32;14.95;;;9.73;;
22421;SDS011;11378;51.642;7.668;2022-11-20T13:27:58;19.15;;;9.95;;
22421;SDS011;11378;51.642;7.668;2022-11-20T13:30:25;16.58;;;10.68;;
22421;SDS011;11378;51.642;7.668;2022-11-20T13:32:56;16.98;;;9.88;;
22421;SDS011;11378;51.642;7.668;2022-11-20T13:35:27;14.65;;;9.63;;
22421;SDS011;11378;51.642;7.668;2022-11-20T13:38:04;12.18;;;8.73;;
22421;SDS011;11378;51.642;7.668;2022-11-20T13:40:32;14.43;;;8.57;;
22421;SDS011;11378;51.642;7.668;2022-11-20T13:43:14;15.23;;;8.63;;
22421;SDS011;11378;51.642;7.668;2022-11-20T13:45:42;14.30;;;8.85;;
22421;SDS011;11378;51.642;7.668;2022-11-20T13:48:19;13.85;;;8.55;;
22421;SDS011;11378;51.642;7.668;2022-11-20T13:50:50;14.60;;;8.55;;
22421;SDS011;11378;51.642;7.668;2022-11-20T13:55:59;11.77;;;8.40;;
22421;SDS011;11378;51.642;7.668;2022-11-20T13:58:35;14.68;;;8.07;;
22421;SDS011;11378;51.642;7.668;2022-11-20T14:01:10;11.75;;;7.90;;
22421;SDS011;11378;51.642;7.668;2022-11-20T14:03:38;11.35;;;7.35;;
22421;SDS011;11378;51.642;7.668;2022-11-20T14:06:05;11.98;;;7.93;;
22421;SDS011;11378;51.642;7.668;2022-11-20T14:08:40;14.60;;;7.47;;
22421;SDS011;11378;51.642;7.668;2022-11-20T14:13:55;12.13;;;7.47;;
22421;SDS011;11378;51.642;7.668;2022-11-20T14:16:22;11.25;;;7.15;;
22421;SDS011;11378;51.642;7.668;2022-11-20T14:18:49;10.57;;;6.82;;
22421;SDS011;11378;51.642;7.668;2022-11-20T14:21:36;9.27;;;6.93;;
22421;SDS011;11378;51.642;7.668;2022-11-20T14:24:05;11.10;;;6.90;;
22421;SDS011;11378;51.642;7.668;2022-11-20T14:26:32;9.90;;;6.80;;
22421;SDS011;11378;51.642;7.668;2022-11-20T14:28:59;10.10;;;6.85;;
22421;SDS011;11378;51.642;7.668;2022-11-20T14:31:26;9.95;;;6.97;;
22421;SDS011;11378;51.642;7.668;2022-11-20T14:33:53;9.07;;;6.50;;
22421;SDS011;11378;51.642;7.668;2022-11-20T14:36:21;10.80;;;6.00;;
22421;SDS011;11378;51.642;7.668;2022-11-20T14:38:48;10.40;;;6.13;;
22421;SDS011;11378;51.642;7.668;2022-11-20T14:41:17;9.07;;;6.45;;
22421;SDS011;11378;51.642;7.668;2022-11-20T14:43:47;10.23;;;6.38;;
22421;SDS011;11378;51.642;7.668;2022-11-20T14:46:15;10.10;;;6.53;;
22421;SDS011;11378;51.642;7.668;2022-11-20T14:48:46;8.00;;;5.85;;
22421;SDS011;11378;51.642;7.668;2022-11-20T14:51:35;8.65;;;5.85;;
22421;SDS011;11378;51.642;7.668;2022-11-20T14:56:41;7.60;;;6.07;;
22421;SDS011;11378;51.642;7.668;2022-11-20T14:59:08;8.80;;;5.68;;
22421;SDS011;11378;51.642;7.668;2022-11-20T15:01:35;7.18;;;5.57;;
22421;SDS011;11378;51.642;7.668;2022-11-20T15:04:06;7.85;;;5.72;;
22421;SDS011;11378;51.642;7.668;2022-11-20T15:06:33;7.80;;;5.93;;
22421;SDS011;11378;51.642;7.668;2022-11-20T15:08:59;7.55;;;5.47;;
22421;SDS011;11378;51.642;7.668;2022-11-20T15:11:30;6.88;;;5.20;;
22421;SDS011;11378;51.642;7.668;2022-11-20T15:13:57;7.20;;;5.72;;
22421;SDS011;11378;51.642;7.668;2022-11-20T15:16:23;6.95;;;5.53;;
22421;SDS011;11378;51.642;7.668;2022-11-20T15:18:51;10.82;;;5.80;;
22421;SDS011;11378;51.642;7.668;2022-11-20T15:21:18;8.48;;;6.07;;
22421;SDS011;11378;51.642;7.668;2022-11-20T15:23:46;10.90;;;5.55;;
22421;SDS011;11378;51.642;7.668;2022-11-20T15:26:13;7.63;;;5.60;;
22421;SDS011;11378;51.642;7.668;2022-11-20T15:28:41;8.18;;;5.65;;
22421;SDS011;11378;51.642;7.668;2022-11-20T15:31:11;7.68;;;5.32;;
22421;SDS011;11378;51.642;7.668;2022-11-20T15:33:37;8.05;;;5.53;;
22421;SDS011;11378;51.642;7.668;2022-11-20T15:36:04;7.65;;;5.47;;
22421;SDS011;11378;51.642;7.668;2022-11-20T15:38:30;10.32;;;5.63;;
22421;SDS011;11378;51.642;7.668;2022-11-20T15:40:56;7.50;;;5.25;;
22421;SDS011;11378;51.642;7.668;2022-11-20T15:43:23;10.65;;;5.88;;
22421;SDS011;11378;51.642;7.668;2022-11-20T15:45:50;8.75;;;5.65;;
22421;SDS011;11378;51.642;7.668;2022-11-20T15:48:19;7.90;;;5.72;;
22421;SDS011;11378;51.642;7.668;2022-11-20T15:53:24;7.32;;;5.13;;
22421;SDS011;11378;51.642;7.668;2022-11-20T15:55:50;8.15;;;6.07;;
22421;SDS011;11378;51.642;7.668;2022-11-20T15:58:17;7.18;;;5.53;;
22421;SDS011;11378;51.642;7.668;2022-11-20T16:00:43;6.85;;;4.93;;
22421;SDS011;11378;51.642;7.668;2022-11-20T16:03:10;6.22;;;5.00;;
22421;SDS011;11378;51.642;7.668;2022-11-20T16:05:37;6.55;;;4.95;;
22421;SDS011;11378;51.642;7.668;2022-11-20T16:08:03;7.45;;;5.25;;
22421;SDS011;11378;51.642;7.668;2022-11-20T16:10:29;6.93;;;5.15;;
22421;SDS011;11378;51.642;7.668;2022-11-20T16:12:56;7.10;;;5.30;;
22421;SDS011;11378;51.642;7.668;2022-11-20T16:15:41;5.40;;;4.32;;
22421;SDS011;11378;51.642;7.668;2022-11-20T16:18:11;4.93;;;4.25;;
22421;SDS011;11378;51.642;7.668;2022-11-20T16:20:37;13.15;;;5.03;;
22421;SDS011;11378;51.642;7.668;2022-11-20T16:23:04;6.75;;;5.28;;
22421;SDS011;11378;51.642;7.668;2022-11-20T16:25:31;12.75;;;4.85;;
22421;SDS011;11378;51.642;7.668;2022-11-20T16:27:57;9.52;;;5.32;;
22421;SDS011;11378;51.642;7.668;2022-11-20T16:30:23;8.60;;;5.40;;
22421;SDS011;11378;51.642;7.668;2022-11-20T16:32:50;8.20;;;4.95;;